Time;durP1;ratioP1;P1;durP2;ratioP2;P2;SDS_P1;SDS_P2;PMS_P1;PMS_P2;Temp;Humidity;BMP_temperature;BMP_pressure;BME280_temperature;BME280_humidity;BME280_pressure;Samples;Min_cycle;Max_cycle;Signal;HPM_P1;HPM_P2
2022/03/28 00:00:27;;;;;;;23.77;12.40;;;;;;;7.22;79.77;102603.38;5038026;28;20033;-59
2022/03/28 00:02:53;;;;;;;23.45;12.25;;;;;;;7.29;80.29;102614.00;5038158;28;20038;-59
2022/03/28 00:05:18;;;;;;;32.38;13.23;;;;;;;7.32;80.61;102614.09;5037912;28;20337;-60
2022/03/28 00:07:44;;;;;;;27.92;12.40;;;;;;;7.40;80.41;102616.91;5037779;28;20041;-60
2022/03/28 00:10:11;;;;;;;24.83;12.45;;;;;;;7.48;80.01;102619.72;5037695;28;20033;-59
2022/03/28 00:12:38;;;;;;;24.10;11.82;;;;;;;7.55;79.35;102613.84;5037757;28;20040;-59
2022/03/28 00:15:05;;;;;;;25.45;12.70;;;;;;;7.42;78.87;102602.22;5037772;28;20053;-59
2022/03/28 00:17:32;;;;;;;25.45;13.07;;;;;;;7.13;80.00;102582.28;5037496;28;20034;-60
2022/03/28 00:19:58;;;;;;;25.73;12.27;;;;;;;7.07;80.67;102582.13;5037042;28;20417;-59
2022/03/28 00:22:23;;;;;;;26.33;12.77;;;;;;;6.91;81.18;102589.47;5037216;28;20029;-59
2022/03/28 00:24:49;;;;;;;26.00;12.43;;;;;;;6.86;81.87;102587.56;5037374;28;20029;-60
2022/03/28 00:27:14;;;;;;;27.33;12.68;;;;;;;6.95;82.00;102585.22;5037476;28;20045;-59
2022/03/28 00:29:39;;;;;;;28.27;13.05;;;;;;;7.07;81.92;102577.78;5037482;28;20041;-59
2022/03/28 00:32:06;;;;;;;24.42;12.85;;;;;;;7.11;81.49;102576.13;5037553;28;20037;-60
2022/03/28 00:34:32;;;;;;;29.05;12.20;;;;;;;7.18;81.56;102568.56;5037513;28;20051;-59
2022/03/28 00:36:57;;;;;;;30.17;12.98;;;;;;;7.24;80.68;102560.94;5037438;28;20476;-60
2022/03/28 00:39:22;;;;;;;23.83;11.80;;;;;;;7.29;80.76;102567.13;5037352;28;20025;-59
2022/03/28 00:41:49;;;;;;;26.55;11.98;;;;;;;7.28;80.44;102567.06;5037169;28;20369;-60
2022/03/28 00:44:14;;;;;;;28.75;12.98;;;;;;;7.34;80.11;102562.06;5037181;28;20123;-59
2022/03/28 00:46:41;;;;;;;26.45;12.35;;;;;;;7.29;80.48;102558.44;5037162;28;20069;-59
2022/03/28 00:49:07;;;;;;;22.90;11.95;;;;;;;7.30;80.19;102552.38;5036777;28;20412;-59
2022/03/28 00:51:32;;;;;;;22.05;12.25;;;;;;;7.27;80.13;102560.13;5037302;28;20036;-60
2022/03/28 00:53:59;;;;;;;24.52;12.10;;;;;;;7.18;80.49;102546.84;5037094;28;20037;-60
2022/03/28 00:56:24;;;;;;;26.10;13.13;;;;;;;7.10;80.78;102556.19;5036917;28;20033;-60
2022/03/28 00:58:50;;;;;;;27.25;12.77;;;;;;;7.09;81.44;102551.81;5037637;28;20037;-60
2022/03/28 01:01:15;;;;;;;26.13;12.32;;;;;;;7.06;81.26;102550.00;5036721;28;20167;-60
2022/03/28 01:03:41;;;;;;;22.80;11.88;;;;;;;7.09;81.08;102544.88;5036496;28;20029;-60
2022/03/28 01:06:07;;;;;;;23.70;11.95;;;;;;;6.99;80.94;102541.13;5036539;28;20048;-59
2022/03/28 01:08:35;;;;;;;31.13;12.68;;;;;;;6.87;81.54;102532.09;5036982;28;20045;-59
2022/03/28 01:11:05;;;;;;;26.20;11.68;;;;;;;6.81;81.95;102535.38;5036743;28;20041;-59
2022/03/28 01:13:33;;;;;;;23.30;11.82;;;;;;;6.63;82.20;102533.13;5036738;28;20033;-59
2022/03/28 01:15:59;;;;;;;25.00;11.52;;;;;;;6.59;82.93;102539.06;5036533;28;20025;-60
2022/03/28 01:18:25;;;;;;;24.90;12.52;;;;;;;6.60;83.15;102534.75;5036525;28;20029;-59
2022/03/28 01:20:54;;;;;;;29.08;12.63;;;;;;;6.61;82.96;102532.19;5036301;28;20060;-59
2022/03/28 01:23:19;;;;;;;26.92;11.68;;;;;;;6.64;82.87;102523.59;5036531;28;20040;-60
2022/03/28 01:25:51;;;;;;;25.20;12.10;;;;;;;6.68;82.46;102508.97;5036282;28;20112;-59
2022/03/28 01:28:17;;;;;;;24.43;12.00;;;;;;;6.71;82.97;102528.16;5036602;28;20021;-59
2022/03/28 01:30:42;;;;;;;23.13;11.88;;;;;;;6.66;82.40;102515.84;5036210;28;20033;-60
2022/03/28 01:33:07;;;;;;;24.85;11.43;;;;;;;6.61;82.53;102507.91;5036087;28;20030;-59
2022/03/28 01:35:35;;;;;;;24.90;11.98;;;;;;;6.57;82.98;102512.16;5036415;28;20033;-60
2022/03/28 01:38:03;;;;;;;28.05;11.68;;;;;;;6.55;82.83;102510.34;5036258;28;20099;-59
2022/03/28 01:40:29;;;;;;;27.90;12.07;;;;;;;6.51;82.84;102508.47;5036158;28;20064;-59
2022/03/28 01:42:54;;;;;;;24.40;11.98;;;;;;;6.25;82.65;102492.97;5035691;28;20140;-60
2022/03/28 01:45:19;;;;;;;25.63;11.73;;;;;;;6.25;83.86;102499.88;5035820;28;20430;-60
2022/03/28 01:47:46;;;;;;;24.05;11.95;;;;;;;6.21;83.70;102511.91;5036110;28;20097;-59
2022/03/28 01:50:11;;;;;;;28.23;12.30;;;;;;;6.20;84.55;102496.28;5035868;28;20041;-60
2022/03/28 01:52:37;;;;;;;26.45;12.55;;;;;;;6.25;84.04;102505.06;5035963;28;20034;-59
2022/03/28 01:55:03;;;;;;;25.05;12.07;;;;;;;6.30;84.10;102503.50;5036059;28;20039;-60
2022/03/28 01:57:28;;;;;;;24.23;12.13;;;;;;;6.39;83.85;102503.81;5035993;28;20041;-59
2022/03/28 01:59:54;;;;;;;22.95;11.55;;;;;;;6.41;83.38;102499.50;5035841;28;20318;-60
2022/03/28 02:02:19;;;;;;;23.88;11.93;;;;;;;6.36;83.56;102498.50;5035888;28;20040;-59
2022/03/28 02:04:44;;;;;;;24.25;12.25;;;;;;;6.33;83.74;102495.81;5035020;28;20361;-59
2022/03/28 02:07:09;;;;;;;24.35;11.93;;;;;;;6.38;83.43;102498.56;5035566;28;20029;-59
2022/03/28 02:09:35;;;;;;;26.10;11.85;;;;;;;6.36;83.78;102500.22;5035590;28;20037;-59
2022/03/28 02:12:00;;;;;;;21.23;11.43;;;;;;;6.39;83.64;102483.00;5035865;28;20029;-60
2022/03/28 02:14:25;;;;;;;26.58;11.88;;;;;;;6.37;83.64;102491.59;5035241;28;20435;-59
2022/03/28 02:16:51;;;;;;;25.05;11.70;;;;;;;6.38;83.55;102494.25;5035227;28;20025;-60
2022/03/28 02:19:16;;;;;;;28.23;12.95;;;;;;;6.39;83.43;102489.91;5035206;28;20118;-59
2022/03/28 02:21:41;;;;;;;26.85;11.77;;;;;;;6.37;83.39;102486.38;5034546;28;20128;-60
2022/03/28 02:24:06;;;;;;;25.27;11.98;;;;;;;6.35;83.64;102498.47;5034757;28;20422;-60
2022/03/28 02:26:32;;;;;;;30.42;12.55;;;;;;;6.23;83.33;102460.84;5034322;28;20030;-60
2022/03/28 02:28:57;;;;;;;26.35;12.60;;;;;;;6.28;83.88;102471.38;5034307;28;20352;-59
2022/03/28 02:31:23;;;;;;;26.70;12.13;;;;;;;6.15;84.26;102472.72;5034274;28;20034;-60
2022/03/28 02:33:48;;;;;;;27.20;12.48;;;;;;;6.01;84.60;102468.84;5034364;28;20492;-59
2022/03/28 02:36:13;;;;;;;28.27;12.10;;;;;;;6.05;85.39;102467.22;5034529;28;20029;-60
2022/03/28 02:38:38;;;;;;;25.25;12.18;;;;;;;6.09;85.11;102466.44;5034294;28;20036;-59
2022/03/28 02:41:04;;;;;;;25.48;12.32;;;;;;;6.07;85.07;102462.91;5034470;28;20047;-59
2022/03/28 02:43:29;;;;;;;29.27;12.57;;;;;;;6.08;85.47;102462.09;5034221;28;20018;-59
2022/03/28 02:45:54;;;;;;;30.40;12.15;;;;;;;6.08;84.85;102451.69;5034028;28;20455;-59
2022/03/28 02:48:20;;;;;;;27.58;12.05;;;;;;;6.02;85.26;102456.72;5034095;28;20029;-59
2022/03/28 02:50:45;;;;;;;30.33;12.45;;;;;;;5.97;85.32;102448.78;5033720;28;20186;-59
2022/03/28 02:53:11;;;;;;;24.38;11.70;;;;;;;5.96;85.28;102443.53;5034207;28;20076;-59
2022/03/28 02:55:37;;;;;;;30.92;12.88;;;;;;;6.00;85.39;102448.00;5033868;28;20056;-59
2022/03/28 02:58:02;;;;;;;27.48;12.15;;;;;;;5.93;85.82;102447.78;5034023;28;20437;-60
2022/03/28 03:00:28;;;;;;;26.80;12.07;;;;;;;5.93;85.50;102446.91;5034219;28;20108;-60
2022/03/28 03:02:53;;;;;;;25.20;11.82;;;;;;;5.91;85.27;102431.28;5033865;28;20091;-60
2022/03/28 03:05:18;;;;;;;29.25;12.35;;;;;;;5.92;84.92;102438.22;5033856;28;20410;-60
2022/03/28 03:07:44;;;;;;;23.55;11.90;;;;;;;6.02;85.03;102446.31;5033934;28;20041;-59
2022/03/28 03:10:09;;;;;;;30.10;12.32;;;;;;;5.93;85.25;102436.53;5033853;28;20393;-60
2022/03/28 03:12:35;;;;;;;24.90;11.77;;;;;;;5.88;85.44;102439.00;5034176;28;20029;-59
2022/03/28 03:15:00;;;;;;;22.73;11.68;;;;;;;5.83;85.71;102432.72;5033797;28;20061;-59
2022/03/28 03:17:25;;;;;;;26.70;11.95;;;;;;;5.88;85.74;102432.88;5032750;28;20052;-59
2022/03/28 03:19:51;;;;;;;24.58;12.02;;;;;;;5.89;85.41;102429.44;4998094;28;1018314;-59
2022/03/28 03:22:17;;;;;;;24.83;11.85;;;;;;;5.94;85.21;102425.28;5034677;28;20056;-59
2022/03/28 03:24:43;;;;;;;27.52;11.50;;;;;;;5.89;85.45;102427.75;5034667;28;20049;-60
2022/03/28 03:27:09;;;;;;;27.13;12.13;;;;;;;5.88;85.01;102428.59;5034464;28;20029;-59
2022/03/28 03:29:36;;;;;;;23.30;11.55;;;;;;;5.87;85.02;102432.00;5034288;28;20428;-59
2022/03/28 03:32:02;;;;;;;24.10;11.23;;;;;;;5.77;85.13;102427.31;5034532;28;20089;-59
2022/03/28 03:34:27;;;;;;;31.92;12.63;;;;;;;5.78;86.32;102420.41;5034327;28;20352;-59
2022/03/28 03:36:53;;;;;;;29.45;11.70;;;;;;;5.72;86.25;102423.69;5034461;28;20038;-59
2022/03/28 03:39:18;;;;;;;28.95;12.20;;;;;;;5.73;85.83;102415.06;5034448;28;20033;-59
2022/03/28 03:41:44;;;;;;;24.10;11.57;;;;;;;5.75;86.11;102410.81;5035113;28;20037;-59
2022/03/28 03:44:09;;;;;;;28.08;11.90;;;;;;;5.70;85.69;102407.22;5034095;28;20034;-60
2022/03/28 03:46:34;;;;;;;25.55;11.82;;;;;;;5.75;85.87;102415.13;5033968;28;20041;-59
2022/03/28 03:49:00;;;;;;;31.92;11.48;;;;;;;5.70;86.16;102407.22;5034070;28;20083;-59
2022/03/28 03:51:25;;;;;;;25.50;12.05;;;;;;;5.64;86.73;102399.22;5034079;28;20098;-59
2022/03/28 03:53:50;;;;;;;26.33;12.15;;;;;;;5.63;86.49;102394.84;5034392;28;20069;-59
2022/03/28 03:56:16;;;;;;;28.92;11.55;;;;;;;5.61;87.03;102401.72;5034686;28;20341;-59
2022/03/28 03:58:41;;;;;;;33.13;11.85;;;;;;;5.59;86.69;102395.59;5033991;28;20477;-59
2022/03/28 04:01:08;;;;;;;32.55;12.30;;;;;;;5.63;86.55;102391.38;5034071;28;20087;-59
2022/03/28 04:03:34;;;;;;;29.40;11.80;;;;;;;5.59;87.08;102388.69;5033848;28;20437;-59
2022/03/28 04:05:59;;;;;;;27.65;11.60;;;;;;;5.51;87.49;102379.78;5034478;28;20029;-59
2022/03/28 04:08:26;;;;;;;31.48;12.75;;;;;;;5.33;87.58;102357.53;5034129;28;20033;-59
2022/03/28 04:10:51;;;;;;;24.40;11.40;;;;;;;5.47;87.22;102392.59;5034233;28;20035;-59
2022/03/28 04:13:17;;;;;;;28.13;11.88;;;;;;;5.43;86.95;102388.13;5033876;28;20116;-60
2022/03/28 04:15:43;;;;;;;26.52;11.50;;;;;;;5.40;87.78;102394.09;5033837;28;20124;-59
2022/03/28 04:18:08;;;;;;;30.23;12.45;;;;;;;5.42;88.14;102378.59;5034477;28;20357;-59
2022/03/28 04:20:33;;;;;;;28.48;12.05;;;;;;;5.43;88.00;102376.03;5033959;28;20053;-60
2022/03/28 04:22:58;;;;;;;30.88;12.52;;;;;;;5.41;87.70;102372.50;5033986;28;20449;-60
2022/03/28 04:25:24;;;;;;;29.92;12.50;;;;;;;5.35;88.12;102377.53;5034205;28;20105;-59
2022/03/28 04:27:50;;;;;;;32.70;12.52;;;;;;;5.36;88.10;102383.59;5034949;28;20341;-60
2022/03/28 04:30:16;;;;;;;24.17;11.13;;;;;;;5.34;87.94;102377.47;5037378;28;20110;-59
2022/03/28 04:32:42;;;;;;;23.55;11.60;;;;;;;5.33;87.82;102383.50;5037546;28;20060;-60
2022/03/28 04:35:09;;;;;;;34.05;12.23;;;;;;;5.30;88.32;102386.88;5037594;28;20048;-60
2022/03/28 04:37:37;;;;;;;27.42;11.05;;;;;;;5.29;88.49;102386.81;5037297;28;20131;-59
2022/03/28 04:40:05;;;;;;;27.67;11.93;;;;;;;5.31;88.01;102378.25;5037093;28;20037;-60
2022/03/28 04:42:30;;;;;;;29.75;11.48;;;;;;;5.30;88.44;102379.09;5037095;28;20033;-59
2022/03/28 04:44:55;;;;;;;32.38;12.15;;;;;;;5.30;88.24;102386.88;5037309;28;20029;-60
2022/03/28 04:47:21;;;;;;;23.40;11.60;;;;;;;5.29;88.54;102376.44;5036465;28;20099;-60
2022/03/28 04:49:46;;;;;;;32.25;12.77;;;;;;;5.29;88.06;102381.63;5037036;28;20026;-59
2022/03/28 04:52:11;;;;;;;33.85;12.13;;;;;;;5.22;88.12;102375.34;5037077;28;20034;-59
2022/03/28 04:54:37;;;;;;;27.38;11.52;;;;;;;5.17;88.75;102372.63;5036987;28;20041;-59
2022/03/28 04:57:04;;;;;;;24.33;11.45;;;;;;;5.18;88.83;102376.97;5036906;28;20125;-60
2022/03/28 04:59:30;;;;;;;31.73;12.02;;;;;;;5.17;88.75;102382.13;5037127;28;20038;-59
2022/03/28 05:01:56;;;;;;;31.17;10.98;;;;;;;5.09;89.00;102379.25;5036803;28;20076;-59
2022/03/28 05:04:21;;;;;;;30.38;11.80;;;;;;;5.12;89.46;102379.34;5036768;28;20164;-59
2022/03/28 05:06:46;;;;;;;24.77;12.05;;;;;;;5.04;88.68;102374.72;5037003;28;20060;-59
2022/03/28 05:09:12;;;;;;;29.92;11.35;;;;;;;5.10;88.85;102386.19;5036709;28;20109;-59
2022/03/28 05:11:37;;;;;;;25.92;11.63;;;;;;;5.08;89.40;102381.78;5036437;28;20036;-58
2022/03/28 05:14:02;;;;;;;32.55;11.77;;;;;;;5.06;89.07;102379.13;5036869;28;20104;-59
2022/03/28 05:16:28;;;;;;;27.52;11.07;;;;;;;5.10;89.24;102381.00;5036723;28;20515;-60
2022/03/28 05:18:53;;;;;;;29.92;10.90;;;;;;;5.06;89.54;102367.88;5036449;28;20413;-59
2022/03/28 05:21:18;;;;;;;27.55;11.05;;;;;;;5.05;89.08;102373.91;5036498;28;20140;-59
2022/03/28 05:23:44;;;;;;;26.42;11.40;;;;;;;5.03;89.63;102378.16;5036515;28;20381;-61
2022/03/28 05:26:09;;;;;;;32.33;11.32;;;;;;;5.01;89.29;102388.50;5035767;28;20044;-60
2022/03/28 05:28:35;;;;;;;29.60;11.50;;;;;;;5.06;89.43;102381.72;5036046;28;20464;-59
2022/03/28 05:31:00;;;;;;;28.65;12.18;;;;;;;5.04;89.38;102387.69;5036269;28;20341;-59
2022/03/28 05:33:25;;;;;;;37.75;12.75;;;;;;;5.03;89.90;102378.16;5036423;28;20044;-60
2022/03/28 05:35:52;;;;;;;29.63;11.90;;;;;;;5.03;89.81;102384.22;5036305;28;20037;-59
2022/03/28 05:38:21;;;;;;;30.08;11.70;;;;;;;5.03;89.70;102381.63;5036323;28;20037;-59
2022/03/28 05:40:46;;;;;;;27.88;11.77;;;;;;;5.04;89.60;102378.19;5035297;28;20030;-59
2022/03/28 05:43:11;;;;;;;33.03;12.05;;;;;;;5.08;89.98;102377.47;5036895;28;20456;-58
2022/03/28 05:45:37;;;;;;;31.98;11.13;;;;;;;5.09;90.45;102376.66;5036017;28;20037;-58
2022/03/28 05:48:03;;;;;;;28.70;11.73;;;;;;;5.11;89.83;102371.53;5036164;28;20117;-58
2022/03/28 05:50:29;;;;;;;25.60;10.65;;;;;;;5.13;90.22;102373.34;5035906;28;20095;-58
2022/03/28 05:52:54;;;;;;;35.15;12.65;;;;;;;5.11;90.41;102368.91;5036289;28;20026;-59
2022/03/28 05:55:20;;;;;;;32.53;11.00;;;;;;;5.14;91.04;102361.25;5035877;28;20044;-58
2022/03/28 05:57:45;;;;;;;31.83;10.75;;;;;;;5.16;90.38;102367.38;5036151;28;20037;-59
2022/03/28 06:00:13;;;;;;;32.60;11.35;;;;;;;5.24;90.61;102363.28;5035734;28;20361;-59
2022/03/28 06:02:38;;;;;;;27.38;11.20;;;;;;;5.29;90.46;102358.25;5035748;28;20029;-58
2022/03/28 06:05:05;;;;;;;33.63;11.60;;;;;;;5.32;90.38;102346.28;5035590;28;20034;-59
2022/03/28 06:07:31;;;;;;;28.63;11.05;;;;;;;5.41;90.86;102345.66;5035508;28;20026;-59
2022/03/28 06:09:56;;;;;;;30.15;11.30;;;;;;;5.54;90.63;102347.84;5035689;28;20052;-61
2022/03/28 06:12:22;;;;;;;32.10;11.43;;;;;;;5.82;90.14;102357.34;5035551;28;20053;-59
2022/03/28 06:14:47;;;;;;;28.75;10.73;;;;;;;6.33;88.62;102347.63;5035839;28;20108;-59
2022/03/28 06:17:32;;;;;;;31.55;11.38;;;;;;;6.74;86.59;102363.47;5035445;28;20029;-59
2022/03/28 06:20:02;;;;;;;29.25;10.73;;;;;;;6.67;86.33;102362.41;5034481;28;20049;-59
2022/03/28 06:22:28;;;;;;;30.88;10.23;;;;;;;6.63;86.58;102342.38;5035415;28;20116;-59
2022/03/28 06:24:53;;;;;;;33.50;10.95;;;;;;;6.58;87.21;102344.84;5035336;28;20080;-59
2022/03/28 06:27:23;;;;;;;29.00;10.60;;;;;;;6.54;88.10;102353.41;5035445;28;20033;-59
2022/03/28 06:29:49;;;;;;;29.15;10.52;;;;;;;6.64;88.49;102347.63;5034934;28;20021;-59
2022/03/28 06:32:14;;;;;;;31.63;10.38;;;;;;;6.97;88.15;102344.13;5035149;28;20338;-58
2022/03/28 06:34:39;;;;;;;34.25;11.02;;;;;;;7.49;86.29;102348.88;5034721;28;20034;-58
2022/03/28 06:37:05;;;;;;;29.90;10.82;;;;;;;7.80;84.25;102326.09;5035158;28;20112;-59
2022/03/28 06:39:30;;;;;;;36.30;10.57;;;;;;;8.09;83.78;102340.66;5034285;28;20049;-58
2022/03/28 06:41:55;;;;;;;29.88;10.18;;;;;;;8.39;82.55;102343.03;5035077;28;20033;-59
2022/03/28 06:44:20;;;;;;;28.05;10.02;;;;;;;8.65;81.12;102349.63;5034951;28;20399;-58
2022/03/28 06:46:46;;;;;;;30.98;10.57;;;;;;;8.89;80.32;102350.91;5035412;28;20045;-58
2022/03/28 06:49:11;;;;;;;41.83;11.60;;;;;;;9.04;79.29;102353.78;5035033;28;20323;-58
2022/03/28 06:51:37;;;;;;;24.88;9.48;;;;;;;9.10;78.95;102340.84;5034994;28;20146;-59
2022/03/28 06:54:05;;;;;;;32.97;10.07;;;;;;;9.15;78.96;102347.03;5034841;28;20041;-59
2022/03/28 06:56:30;;;;;;;26.98;10.20;;;;;;;9.20;78.87;102339.25;5035073;28;20110;-59
2022/03/28 06:58:56;;;;;;;27.55;9.70;;;;;;;9.29;78.46;102332.44;5035087;28;20135;-58
2022/03/28 07:01:22;;;;;;;30.33;10.68;;;;;;;9.27;78.41;102328.06;5035151;28;20353;-58
2022/03/28 07:03:47;;;;;;;29.40;10.52;;;;;;;9.23;78.50;102340.16;5034939;28;20036;-58
2022/03/28 07:06:12;;;;;;;29.45;10.02;;;;;;;9.26;78.71;102335.00;5034755;28;20429;-58
2022/03/28 07:08:38;;;;;;;32.78;10.85;;;;;;;9.25;78.78;102330.63;5034537;28;20034;-59
2022/03/28 07:11:03;;;;;;;32.10;11.00;;;;;;;9.24;79.44;102328.00;5035209;28;20044;-58
2022/03/28 07:13:29;;;;;;;26.95;10.45;;;;;;;9.25;79.36;102328.03;5034975;28;20037;-59
2022/03/28 07:15:54;;;;;;;34.15;11.25;;;;;;;9.31;78.68;102322.91;5034296;28;20037;-58
2022/03/28 07:18:20;;;;;;;31.05;10.18;;;;;;;9.31;79.86;102322.91;5030596;28;20026;-59
2022/03/28 07:20:46;;;;;;;29.02;11.80;;;;;;;9.36;79.48;102317.72;5033159;28;20100;-57
2022/03/28 07:23:13;;;;;;;29.20;11.45;;;;;;;9.38;78.84;102314.28;5034253;28;20524;-60
2022/03/28 07:25:38;;;;;;;30.45;12.02;;;;;;;9.55;78.50;102317.16;5034496;28;20033;-60
2022/03/28 07:28:08;;;;;;;34.85;12.38;;;;;;;9.50;78.48;102310.13;5034036;28;20034;-60
2022/03/28 07:30:34;;;;;;;33.00;11.88;;;;;;;9.57;78.57;102310.22;5034397;28;20171;-60
2022/03/28 07:33:01;;;;;;;34.90;12.23;;;;;;;9.58;78.39;102308.47;5034642;28;20043;-60
2022/03/28 07:35:26;;;;;;;36.20;13.25;;;;;;;9.61;79.35;102305.91;5034588;28;20029;-59
2022/03/28 07:37:52;;;;;;;35.97;13.52;;;;;;;9.59;78.65;102298.03;5034059;28;20476;-59
2022/03/28 07:40:18;;;;;;;33.47;13.15;;;;;;;9.74;78.93;102299.97;5034885;28;20044;-59
2022/03/28 07:42:44;;;;;;;30.90;12.43;;;;;;;9.80;78.15;102289.63;5034322;28;20041;-59
2022/03/28 07:45:10;;;;;;;32.00;13.00;;;;;;;9.88;78.12;102301.03;5034268;28;20052;-59
2022/03/28 07:47:36;;;;;;;31.98;13.63;;;;;;;9.95;77.53;102294.16;5034154;28;20073;-59
2022/03/28 07:50:02;;;;;;;30.88;13.65;;;;;;;9.95;77.36;102283.69;5034121;28;20033;-59
2022/03/28 07:52:28;;;;;;;33.83;14.13;;;;;;;10.04;76.45;102274.22;5034198;28;20034;-60
2022/03/28 07:54:53;;;;;;;32.97;13.15;;;;;;;9.97;77.84;102271.53;5033810;28;20108;-59
2022/03/28 07:57:20;;;;;;;32.75;14.10;;;;;;;10.03;77.39;102282.94;5033947;28;20044;-59
2022/03/28 07:59:47;;;;;;;30.25;14.40;;;;;;;10.20;77.05;102284.91;5034092;28;20045;-59
2022/03/28 08:02:13;;;;;;;39.00;15.07;;;;;;;10.32;76.74;102285.03;5034464;28;20556;-59
2022/03/28 08:04:38;;;;;;;32.38;15.00;;;;;;;10.49;76.28;102274.75;5038267;28;20174;-59
2022/03/28 08:07:08;;;;;;;35.95;15.10;;;;;;;10.68;76.17;102282.78;5037091;28;20120;-59
2022/03/28 08:09:36;;;;;;;34.25;14.90;;;;;;;10.94;75.50;102287.34;5037997;28;20429;-60
2022/03/28 08:12:03;;;;;;;37.70;14.85;;;;;;;11.10;74.55;102282.25;5037713;28;20025;-60
2022/03/28 08:14:29;;;;;;;34.08;14.00;;;;;;;11.40;74.36;102268.50;5037722;28;20041;-59
2022/03/28 08:16:55;;;;;;;33.00;13.98;;;;;;;11.69;72.76;102266.03;5037810;28;20029;-59
2022/03/28 08:19:20;;;;;;;39.38;14.88;;;;;;;11.89;71.44;102257.41;5037677;28;20433;-59
2022/03/28 08:21:46;;;;;;;29.65;13.80;;;;;;;12.16;71.45;102247.84;5037891;28;20480;-60
2022/03/28 08:24:11;;;;;;;35.92;14.43;;;;;;;12.84;69.55;102252.31;5037292;28;20025;-60
2022/03/28 08:26:36;;;;;;;36.70;14.05;;;;;;;13.28;67.26;102251.44;5037068;28;20045;-60
2022/03/28 08:29:03;;;;;;;35.92;13.68;;;;;;;13.43;65.71;102251.38;5037770;28;20033;-61
2022/03/28 08:31:29;;;;;;;35.90;13.30;;;;;;;13.52;65.16;102253.09;5037046;28;20522;-60
2022/03/28 08:33:55;;;;;;;33.03;14.10;;;;;;;13.70;64.04;102244.28;5037873;28;20026;-66
2022/03/28 08:36:20;;;;;;;30.23;14.45;;;;;;;13.95;63.50;102238.03;5037624;28;20033;-60
2022/03/28 08:38:45;;;;;;;35.80;13.63;;;;;;;14.88;60.59;102235.66;5037248;28;20029;-60
2022/03/28 08:41:14;;;;;;;33.55;13.73;;;;;;;15.85;57.23;102233.75;5037675;28;20168;-60
2022/03/28 08:43:40;;;;;;;29.73;14.25;;;;;;;16.16;55.98;102235.97;5037447;28;20029;-60
2022/03/28 08:46:08;;;;;;;34.40;14.50;;;;;;;16.85;54.08;102225.19;5037719;28;20112;-60
2022/03/28 08:48:35;;;;;;;32.25;13.80;;;;;;;17.21;52.51;102226.31;5037195;28;20044;-61
2022/03/28 08:51:01;;;;;;;29.70;13.93;;;;;;;17.04;52.23;102222.22;5036971;28;20343;-60
2022/03/28 08:53:27;;;;;;;31.80;14.60;;;;;;;16.66;53.91;102229.94;5037101;28;20124;-60
2022/03/28 08:55:52;;;;;;;31.55;15.38;;;;;;;16.19;54.80;102228.88;5036888;28;20130;-60
2022/03/28 08:58:18;;;;;;;29.52;14.95;;;;;;;15.60;56.30;102225.25;5037146;28;20029;-60
2022/03/28 09:00:43;;;;;;;31.27;15.57;;;;;;;15.19;57.38;102222.19;5037011;28;20053;-60
2022/03/28 09:03:08;;;;;;;29.92;16.63;;;;;;;14.73;58.63;102234.91;5036956;28;20399;-61
2022/03/28 09:05:36;;;;;;;35.55;15.90;;;;;;;14.43;60.40;102243.91;5036970;28;20029;-60
2022/03/28 09:08:04;;;;;;;36.10;17.52;;;;;;;14.35;61.40;102246.59;5036595;28;20108;-60
2022/03/28 09:10:34;;;;;;;32.65;16.83;;;;;;;14.23;62.04;102238.75;5037291;28;20029;-60
2022/03/28 09:12:59;;;;;;;34.17;17.33;;;;;;;14.17;61.77;102231.78;5036477;28;20033;-61
2022/03/28 09:15:25;;;;;;;40.22;20.35;;;;;;;14.13;61.94;102230.03;5037185;28;20029;-61
2022/03/28 09:17:55;;;;;;;38.80;18.90;;;;;;;14.20;62.40;102225.59;5036786;28;20029;-60
2022/03/28 09:20:23;;;;;;;34.47;19.63;;;;;;;14.29;61.38;102225.56;5036485;28;20072;-61
2022/03/28 09:22:49;;;;;;;36.97;18.90;;;;;;;14.51;62.13;102227.19;5036542;28;20064;-61
2022/03/28 09:25:16;;;;;;;38.40;19.45;;;;;;;14.44;60.94;102229.88;5036576;28;20029;-61
2022/03/28 09:27:44;;;;;;;41.33;20.33;;;;;;;14.49;60.73;102223.69;5035817;28;20408;-61
2022/03/28 09:30:14;;;;;;;45.05;20.40;;;;;;;14.78;61.08;102220.81;5036695;28;20037;-64
2022/03/28 09:32:46;;;;;;;40.72;21.33;;;;;;;14.84;59.96;102227.78;5035396;28;20089;-61
2022/03/28 09:35:13;;;;;;;41.90;21.40;;;;;;;14.93;58.68;102220.66;5035996;28;20044;-61
2022/03/28 09:38:04;;;;;;;40.80;21.27;;;;;;;14.94;59.87;102216.28;5032256;28;20029;-61
2022/03/28 09:40:51;;;;;;;41.53;20.50;;;;;;;15.17;60.32;102209.00;5033935;28;20037;-60
2022/03/28 09:43:25;;;;;;;38.35;20.10;;;;;;;15.54;59.39;102209.47;5036219;28;20021;-62
2022/03/28 09:45:53;;;;;;;40.15;20.02;;;;;;;15.58;57.19;102200.66;5036012;28;20376;-59
2022/03/28 09:48:19;;;;;;;37.25;20.30;;;;;;;15.56;57.67;102206.84;5036212;28;20041;-61
2022/03/28 09:50:59;;;;;;;36.63;19.38;;;;;;;15.54;58.53;102201.56;5036435;28;20360;-60
2022/03/28 09:53:31;;;;;;;36.55;18.67;;;;;;;15.56;57.05;102197.16;5067254;28;20120;-60
2022/03/28 09:56:00;;;;;;;39.43;19.90;;;;;;;15.65;57.04;102194.41;5035636;28;20053;-61
2022/03/28 09:58:46;;;;;;;36.33;19.15;;;;;;;15.76;58.29;102193.41;5035581;28;20036;-60
2022/03/28 10:01:21;;;;;;;36.38;19.60;;;;;;;15.81;57.51;102188.91;5034219;28;20069;-60
2022/03/28 10:03:48;;;;;;;37.10;19.55;;;;;;;15.79;56.88;102185.41;5036000;28;20429;-62
2022/03/28 10:06:15;;;;;;;37.80;19.60;;;;;;;16.00;57.55;102180.72;5035869;28;20095;-61
2022/03/28 10:08:41;;;;;;;41.42;19.05;;;;;;;16.26;56.38;102180.34;5035382;28;20037;-59
2022/03/28 10:11:07;;;;;;;39.90;19.70;;;;;;;16.47;56.39;102179.09;5035904;28;20496;-61
2022/03/28 10:13:32;;;;;;;37.20;20.38;;;;;;;16.60;54.41;102185.09;5036025;28;20112;-61
2022/03/28 10:16:00;;;;;;;40.10;21.35;;;;;;;16.43;53.93;102179.19;5035307;28;20040;-61
2022/03/28 10:18:39;;;;;;;39.65;21.02;;;;;;;16.36;55.14;102171.38;5035511;28;20044;-61
2022/03/28 10:21:17;;;;;;;40.10;23.30;;;;;;;16.33;52.57;102176.69;5035817;28;20126;-61
2022/03/28 10:23:49;;;;;;;37.88;21.65;;;;;;;16.38;53.21;102179.28;5035805;28;20039;-59
2022/03/28 10:26:18;;;;;;;42.08;22.98;;;;;;;16.48;52.70;102167.63;5035203;28;20033;-61
2022/03/28 10:28:59;;;;;;;37.40;22.65;;;;;;;16.58;53.83;102163.09;5035488;28;20029;-61
2022/03/28 10:31:24;;;;;;;41.60;23.85;;;;;;;16.82;52.01;102156.50;5035394;28;20025;-61
2022/03/28 10:33:52;;;;;;;40.60;23.08;;;;;;;17.01;52.24;102156.13;5034946;28;20148;-61
2022/03/28 10:36:30;;;;;;;43.78;23.30;;;;;;;17.03;51.94;102151.69;5035630;28;20033;-60
2022/03/28 10:39:43;;;;;;;42.90;21.20;;;;;;;16.90;53.69;102144.91;5035322;28;20440;-60
2022/03/28 10:42:17;;;;;;;37.92;21.45;;;;;;;16.84;53.23;102141.50;5032218;28;20045;-60
2022/03/28 10:45:04;;;;;;;33.38;20.50;;;;;;;16.94;53.19;102129.88;5035180;28;20336;-60
2022/03/28 10:47:52;;;;;;;41.55;21.60;;;;;;;16.90;52.24;102121.09;5035193;28;20393;-61
2022/03/28 10:50:24;;;;;;;37.83;21.30;;;;;;;17.01;52.05;102124.41;5035006;28;20098;-60
2022/03/28 10:53:19;;;;;;;39.05;20.75;;;;;;;16.98;52.34;102123.59;5035153;28;20140;-60
2022/03/28 10:55:47;;;;;;;37.22;20.17;;;;;;;16.66;53.02;102122.44;5034075;28;20033;-60
2022/03/28 10:58:18;;;;;;;40.25;20.98;;;;;;;16.63;53.26;102122.47;5034775;28;20072;-60
2022/03/28 11:01:12;;;;;;;34.72;19.80;;;;;;;17.00;54.44;102120.00;5035161;28;20026;-60
2022/03/28 11:03:45;;;;;;;36.20;20.58;;;;;;;17.28;51.16;102123.00;5034908;28;20109;-60
2022/03/28 11:06:12;;;;;;;35.40;19.65;;;;;;;17.42;50.87;102120.06;5035768;28;20317;-60
2022/03/28 11:08:57;;;;;;;39.58;21.23;;;;;;;17.62;50.79;102117.84;5034752;28;20512;-61
2022/03/28 11:11:25;;;;;;;33.78;19.90;;;;;;;17.69;50.70;102110.66;5035029;28;20041;-62
2022/03/28 11:14:00;;;;;;;38.97;20.50;;;;;;;17.43;51.15;102113.84;5034638;28;20029;-60